sensor_id;sensor_type;location;lat;lon;timestamp;pressure;altitude;pressure_sealevel;temperature;humidity
45864;BME280;31579;52.354;16.974;2023-04-07T00:00:21;-20.1;;;-146.1;100.0
45864;BME280;31579;52.354;16.974;2023-04-07T00:01:25;-22.3;;;-146.1;100.0
45864;BME280;31579;52.354;16.974;2023-04-07T00:02:29;-25.1;;;-146.1;100.0
45864;BME280;31579;52.354;16.974;2023-04-07T00:03:34;-23.8;;;-146.1;100.0
45864;BME280;31579;52.354;16.974;2023-04-07T00:04:38;-24.0;;;-146.1;100.0
45864;BME280;31579;52.354;16.974;2023-04-07T00:05:42;-27.9;;;-146.1;100.0
45864;BME280;31579;52.354;16.974;2023-04-07T00:06:46;-27.5;;;-146.1;100.0
45864;BME280;31579;52.354;16.974;2023-04-07T00:07:50;-27.1;;;-146.1;100.0
45864;BME280;31579;52.354;16.974;2023-04-07T00:08:54;-26.7;;;-146.1;100.0
45864;BME280;31579;52.354;16.974;2023-04-07T00:09:58;-26.5;;;-146.1;100.0
45864;BME280;31579;52.354;16.974;2023-04-07T00:11:02;-28.2;;;-146.1;100.0
45864;BME280;31579;52.354;16.974;2023-04-07T00:12:06;-32.5;;;-146.1;100.0
45864;BME280;31579;52.354;16.974;2023-04-07T00:13:09;-43.4;;;-146.1;100.0
45864;BME280;31579;52.354;16.974;2023-04-07T00:14:13;-40.7;;;-146.1;100.0
45864;BME280;31579;52.354;16.974;2023-04-07T00:15:17;-40.2;;;-146.1;100.0
45864;BME280;31579;52.354;16.974;2023-04-07T00:16:21;-41.2;;;-146.1;100.0
45864;BME280;31579;52.354;16.974;2023-04-07T00:17:25;-40.3;;;-146.1;100.0
45864;BME280;31579;52.354;16.974;2023-04-07T00:18:29;-44.8;;;-146.1;100.0
45864;BME280;31579;52.354;16.974;2023-04-07T00:19:33;-49.0;;;-146.1;100.0
45864;BME280;31579;52.354;16.974;2023-04-07T00:20:37;-50.7;;;-146.1;100.0
45864;BME280;31579;52.354;16.974;2023-04-07T00:21:41;-53.1;;;-146.1;100.0
45864;BME280;31579;52.354;16.974;2023-04-07T00:22:45;-52.5;;;-146.1;100.0
45864;BME280;31579;52.354;16.974;2023-04-07T00:23:49;-51.7;;;-146.1;100.0
45864;BME280;31579;52.354;16.974;2023-04-07T00:24:53;-51.4;;;-146.1;100.0
45864;BME280;31579;52.354;16.974;2023-04-07T00:25:57;-49.1;;;-146.1;100.0
45864;BME280;31579;52.354;16.974;2023-04-07T00:27:01;-46.4;;;-146.1;100.0
45864;BME280;31579;52.354;16.974;2023-04-07T00:28:04;-53.7;;;-146.1;100.0
45864;BME280;31579;52.354;16.974;2023-04-07T00:29:06;-63.6;;;-146.1;100.0
45864;BME280;31579;52.354;16.974;2023-04-07T00:30:11;-50.5;;;-146.1;100.0
45864;BME280;31579;52.354;16.974;2023-04-07T00:31:15;-53.0;;;-146.1;100.0
45864;BME280;31579;52.354;16.974;2023-04-07T00:32:20;-54.6;;;-146.1;100.0
45864;BME280;31579;52.354;16.974;2023-04-07T00:33:24;-60.2;;;-146.1;100.0
45864;BME280;31579;52.354;16.974;2023-04-07T00:34:29;-64.7;;;-146.1;100.0
45864;BME280;31579;52.354;16.974;2023-04-07T00:35:33;-69.5;;;-146.1;100.0
45864;BME280;31579;52.354;16.974;2023-04-07T00:36:37;-74.3;;;-146.1;100.0
45864;BME280;31579;52.354;16.974;2023-04-07T00:37:41;-77.6;;;-146.1;100.0
45864;BME280;31579;52.354;16.974;2023-04-07T00:38:45;-80.9;;;-146.1;100.0
45864;BME280;31579;52.354;16.974;2023-04-07T00:39:49;-84.8;;;-146.1;100.0
45864;BME280;31579;52.354;16.974;2023-04-07T00:41:57;-90.4;;;-146.1;100.0
45864;BME280;31579;52.354;16.974;2023-04-07T00:43:01;-92.6;;;-146.1;100.0
45864;BME280;31579;52.354;16.974;2023-04-07T00:44:09;-89.2;;;-146.1;100.0
45864;BME280;31579;52.354;16.974;2023-04-07T00:45:14;-95.2;;;-146.1;100.0
45864;BME280;31579;52.354;16.974;2023-04-07T00:46:18;-97.4;;;-146.1;100.0
45864;BME280;31579;52.354;16.974;2023-04-07T00:47:22;-93.7;;;-146.1;100.0
45864;BME280;31579;52.354;16.974;2023-04-07T00:48:26;-91.4;;;-146.1;100.0
45864;BME280;31579;52.354;16.974;2023-04-07T00:49:30;-92.7;;;-146.1;100.0
45864;BME280;31579;52.354;16.974;2023-04-07T00:50:34;-96.1;;;-146.1;100.0
45864;BME280;31579;52.354;16.974;2023-04-07T00:51:38;-99.1;;;-146.1;100.0
45864;BME280;31579;52.354;16.974;2023-04-07T00:52:42;-102.9;;;-146.1;100.0
45864;BME280;31579;52.354;16.974;2023-04-07T00:53:46;-105.6;;;-146.1;100.0
45864;BME280;31579;52.354;16.974;2023-04-07T00:54:50;-108.4;;;-146.1;100.0
45864;BME280;31579;52.354;16.974;2023-04-07T00:55:54;-111.3;;;-146.1;100.0
45864;BME280;31579;52.354;16.974;2023-04-07T00:56:58;-111.7;;;-146.1;100.0
45864;BME280;31579;52.354;16.974;2023-04-07T00:58:02;-113.0;;;-146.1;100.0
45864;BME280;31579;52.354;16.974;2023-04-07T00:59:09;-111.5;;;-146.1;100.0
45864;BME280;31579;52.354;16.974;2023-04-07T01:00:13;-115.4;;;-146.1;100.0
45864;BME280;31579;52.354;16.974;2023-04-07T01:01:18;-117.0;;;-146.1;100.0
45864;BME280;31579;52.354;16.974;2023-04-07T01:02:25;-118.8;;;-146.1;100.0
45864;BME280;31579;52.354;16.974;2023-04-07T01:03:32;-120.5;;;-146.1;100.0
45864;BME280;31579;52.354;16.974;2023-04-07T01:04:32;-121.3;;;-146.1;100.0
45864;BME280;31579;52.354;16.974;2023-04-07T01:05:36;-122.1;;;-146.1;100.0
45864;BME280;31579;52.354;16.974;2023-04-07T01:06:39;-123.1;;;-146.1;100.0
45864;BME280;31579;52.354;16.974;2023-04-07T01:07:47;-123.8;;;-146.1;100.0
45864;BME280;31579;52.354;16.974;2023-04-07T01:14:06;-132.0;;;-146.1;100.0
45864;BME280;31579;52.354;16.974;2023-04-07T01:15:11;-133.3;;;-146.1;100.0
45864;BME280;31579;52.354;16.974;2023-04-07T01:17:18;-134.5;;;-146.1;100.0
45864;BME280;31579;52.354;16.974;2023-04-07T01:18:23;-134.3;;;-146.1;100.0
45864;BME280;31579;52.354;16.974;2023-04-07T01:20:30;-136.4;;;-146.1;100.0
45864;BME280;31579;52.354;16.974;2023-04-07T01:21:34;-138.1;;;-146.1;100.0
45864;BME280;31579;52.354;16.974;2023-04-07T01:26:55;-142.0;;;-146.1;100.0
45864;BME280;31579;52.354;16.974;2023-04-07T01:30:07;-144.5;;;-146.1;100.0
45864;BME280;31579;52.354;16.974;2023-04-07T01:31:11;-145.3;;;-146.1;100.0
45864;BME280;31579;52.354;16.974;2023-04-07T01:32:15;-145.7;;;-146.1;100.0
45864;BME280;31579;52.354;16.974;2023-04-07T01:33:19;-146.2;;;-146.1;100.0
45864;BME280;31579;52.354;16.974;2023-04-07T01:34:23;-146.5;;;-146.1;100.0
45864;BME280;31579;52.354;16.974;2023-04-07T01:35:28;-146.9;;;-146.1;100.0
45864;BME280;31579;52.354;16.974;2023-04-07T01:36:31;-147.1;;;-146.1;100.0
45864;BME280;31579;52.354;16.974;2023-04-07T01:37:35;-147.4;;;-146.1;100.0
45864;BME280;31579;52.354;16.974;2023-04-07T01:38:39;-147.6;;;-146.1;100.0
45864;BME280;31579;52.354;16.974;2023-04-07T01:39:43;-147.8;;;-146.1;100.0
45864;BME280;31579;52.354;16.974;2023-04-07T01:40:47;-147.8;;;-146.1;100.0
45864;BME280;31579;52.354;16.974;2023-04-07T01:41:51;-147.9;;;-146.1;100.0
45864;BME280;31579;52.354;16.974;2023-04-07T01:42:56;-148.0;;;-146.1;100.0
45864;BME280;31579;52.354;16.974;2023-04-07T01:44:00;-148.2;;;-146.1;100.0
45864;BME280;31579;52.354;16.974;2023-04-07T01:45:04;-148.4;;;-146.1;100.0
45864;BME280;31579;52.354;16.974;2023-04-07T01:46:08;-148.5;;;-146.1;100.0
45864;BME280;31579;52.354;16.974;2023-04-07T01:47:12;-148.3;;;-146.1;100.0
45864;BME280;31579;52.354;16.974;2023-04-07T01:48:16;-148.7;;;-146.1;100.0
45864;BME280;31579;52.354;16.974;2023-04-07T01:49:21;-149.1;;;-146.1;100.0
45864;BME280;31579;52.354;16.974;2023-04-07T01:50:25;-149.4;;;-146.1;100.0
45864;BME280;31579;52.354;16.974;2023-04-07T01:51:29;-149.0;;;-146.1;100.0
45864;BME280;31579;52.354;16.974;2023-04-07T01:52:33;-148.4;;;-146.1;100.0
45864;BME280;31579;52.354;16.974;2023-04-07T01:53:37;-147.7;;;-146.1;100.0
45864;BME280;31579;52.354;16.974;2023-04-07T01:54:41;-147.9;;;-146.1;100.0
45864;BME280;31579;52.354;16.974;2023-04-07T01:55:45;-148.0;;;-146.1;100.0
45864;BME280;31579;52.354;16.974;2023-04-07T01:56:49;-148.0;;;-146.1;100.0
45864;BME280;31579;52.354;16.974;2023-04-07T01:57:53;-147.7;;;-146.1;100.0
45864;BME280;31579;52.354;16.974;2023-04-07T01:58:57;-146.4;;;-146.1;100.0
45864;BME280;31579;52.354;16.974;2023-04-07T02:00:01;-147.8;;;-146.1;100.0
45864;BME280;31579;52.354;16.974;2023-04-07T02:01:06;-148.1;;;-146.1;100.0
45864;BME280;31579;52.354;16.974;2023-04-07T02:02:23;-151.7;;;-146.1;100.0
45864;BME280;31579;52.354;16.974;2023-04-07T02:03:29;-141.6;;;-146.1;100.0
45864;BME280;31579;52.354;16.974;2023-04-07T02:04:34;-142.4;;;-146.1;100.0
45864;BME280;31579;52.354;16.974;2023-04-07T02:05:35;-143.6;;;-146.1;100.0
45864;BME280;31579;52.354;16.974;2023-04-07T02:06:57;-151.9;;;-146.1;100.0
45864;BME280;31579;52.354;16.974;2023-04-07T02:08:58;-133.8;;;-146.1;100.0
45864;BME280;31579;52.354;16.974;2023-04-07T02:10:01;-135.2;;;-146.1;100.0
45864;BME280;31579;52.354;16.974;2023-04-07T02:11:03;-129.9;;;-146.1;100.0
45864;BME280;31579;52.354;16.974;2023-04-07T02:12:08;-145.3;;;-146.1;100.0
45864;BME280;31579;52.354;16.974;2023-04-07T02:13:12;-146.6;;;-146.1;100.0
45864;BME280;31579;52.354;16.974;2023-04-07T02:14:15;-144.5;;;-146.1;100.0
45864;BME280;31579;52.354;16.974;2023-04-07T02:15:19;-144.6;;;-146.1;100.0
45864;BME280;31579;52.354;16.974;2023-04-07T02:16:23;-145.0;;;-146.1;100.0
45864;BME280;31579;52.354;16.974;2023-04-07T02:17:27;-145.5;;;-146.1;100.0
45864;BME280;31579;52.354;16.974;2023-04-07T02:18:31;-145.5;;;-146.1;100.0
45864;BME280;31579;52.354;16.974;2023-04-07T02:19:35;-145.7;;;-146.1;100.0
45864;BME280;31579;52.354;16.974;2023-04-07T02:20:39;-145.6;;;-146.1;100.0
45864;BME280;31579;52.354;16.974;2023-04-07T02:21:43;-139.2;;;-146.1;100.0
45864;BME280;31579;52.354;16.974;2023-04-07T02:22:47;-149.8;;;-146.1;100.0
45864;BME280;31579;52.354;16.974;2023-04-07T02:23:51;-149.4;;;-146.1;100.0
45864;BME280;31579;52.354;16.974;2023-04-07T02:24:55;-148.8;;;-146.1;100.0
45864;BME280;31579;52.354;16.974;2023-04-07T02:25:59;-148.1;;;-146.1;100.0
45864;BME280;31579;52.354;16.974;2023-04-07T02:27:03;-147.7;;;-146.1;100.0
45864;BME280;31579;52.354;16.974;2023-04-07T02:28:07;-147.4;;;-146.1;100.0
45864;BME280;31579;52.354;16.974;2023-04-07T02:29:11;-146.8;;;-146.1;100.0
45864;BME280;31579;52.354;16.974;2023-04-07T02:30:15;-146.2;;;-146.1;100.0
45864;BME280;31579;52.354;16.974;2023-04-07T02:31:19;-145.9;;;-146.1;100.0
45864;BME280;31579;52.354;16.974;2023-04-07T02:32:23;-146.0;;;-146.1;100.0
45864;BME280;31579;52.354;16.974;2023-04-07T02:33:27;-145.7;;;-146.1;100.0
45864;BME280;31579;52.354;16.974;2023-04-07T02:34:31;-145.8;;;-146.1;100.0
45864;BME280;31579;52.354;16.974;2023-04-07T02:35:35;-145.9;;;-146.1;100.0
45864;BME280;31579;52.354;16.974;2023-04-07T02:36:39;-145.9;;;-146.1;100.0
45864;BME280;31579;52.354;16.974;2023-04-07T02:37:42;-130.5;;;-146.1;100.0
45864;BME280;31579;52.354;16.974;2023-04-07T02:38:44;-127.8;;;-146.1;100.0
45864;BME280;31579;52.354;16.974;2023-04-07T02:39:48;-151.2;;;-146.1;100.0
45864;BME280;31579;52.354;16.974;2023-04-07T02:40:53;-150.5;;;-146.1;100.0
45864;BME280;31579;52.354;16.974;2023-04-07T02:41:57;-149.0;;;-146.1;100.0
45864;BME280;31579;52.354;16.974;2023-04-07T02:43:01;-147.7;;;-146.1;100.0
45864;BME280;31579;52.354;16.974;2023-04-07T02:44:05;-146.7;;;-146.1;100.0
45864;BME280;31579;52.354;16.974;2023-04-07T02:45:09;-145.7;;;-146.1;100.0
45864;BME280;31579;52.354;16.974;2023-04-07T02:46:13;-144.8;;;-146.1;100.0
45864;BME280;31579;52.354;16.974;2023-04-07T02:47:17;-144.4;;;-146.1;100.0
45864;BME280;31579;52.354;16.974;2023-04-07T02:48:21;-144.3;;;-146.1;100.0
45864;BME280;31579;52.354;16.974;2023-04-07T02:49:25;-143.5;;;-146.1;100.0
45864;BME280;31579;52.354;16.974;2023-04-07T02:50:29;-143.2;;;-146.1;100.0
45864;BME280;31579;52.354;16.974;2023-04-07T02:51:33;-143.6;;;-146.1;100.0
45864;BME280;31579;52.354;16.974;2023-04-07T02:52:38;-143.5;;;-146.1;100.0
45864;BME280;31579;52.354;16.974;2023-04-07T02:53:42;-142.8;;;-146.1;100.0
45864;BME280;31579;52.354;16.974;2023-04-07T02:54:45;-121.5;;;-146.1;100.0
45864;BME280;31579;52.354;16.974;2023-04-07T02:55:49;-145.9;;;-146.1;100.0
45864;BME280;31579;52.354;16.974;2023-04-07T02:56:53;-145.5;;;-146.1;100.0
45864;BME280;31579;52.354;16.974;2023-04-07T02:57:57;-144.1;;;-146.1;100.0
45864;BME280;31579;52.354;16.974;2023-04-07T02:59:01;-142.6;;;-146.1;100.0
45864;BME280;31579;52.354;16.974;2023-04-07T03:00:05;-141.7;;;-146.1;100.0
45864;BME280;31579;52.354;16.974;2023-04-07T03:01:09;-141.5;;;-146.1;100.0
45864;BME280;31579;52.354;16.974;2023-04-07T03:02:13;-141.5;;;-146.1;100.0
45864;BME280;31579;52.354;16.974;2023-04-07T03:03:17;-143.1;;;-146.1;100.0
45864;BME280;31579;52.354;16.974;2023-04-07T03:04:21;-143.2;;;-146.1;100.0
45864;BME280;31579;52.354;16.974;2023-04-07T03:05:25;-142.9;;;-146.1;100.0
45864;BME280;31579;52.354;16.974;2023-04-07T03:06:29;-143.3;;;-146.1;100.0
45864;BME280;31579;52.354;16.974;2023-04-07T03:07:34;-143.7;;;-146.1;100.0
45864;BME280;31579;52.354;16.974;2023-04-07T03:08:38;-143.6;;;-146.1;100.0
45864;BME280;31579;52.354;16.974;2023-04-07T03:09:45;-152.7;;;-146.1;100.0
45864;BME280;31579;52.354;16.974;2023-04-07T03:10:49;-128.1;;;-146.1;100.0
45864;BME280;31579;52.354;16.974;2023-04-07T03:11:53;-132.1;;;-146.1;100.0
45864;BME280;31579;52.354;16.974;2023-04-07T03:12:57;-136.3;;;-146.1;100.0
45864;BME280;31579;52.354;16.974;2023-04-07T03:14:01;-139.2;;;-146.1;100.0
45864;BME280;31579;52.354;16.974;2023-04-07T03:15:05;-141.2;;;-146.1;100.0
45864;BME280;31579;52.354;16.974;2023-04-07T03:16:09;-142.4;;;-146.1;100.0
45864;BME280;31579;52.354;16.974;2023-04-07T03:17:13;-143.4;;;-146.1;100.0
45864;BME280;31579;52.354;16.974;2023-04-07T03:18:17;-144.0;;;-146.1;100.0
45864;BME280;31579;52.354;16.974;2023-04-07T03:19:21;-143.6;;;-146.1;100.0
45864;BME280;31579;52.354;16.974;2023-04-07T03:20:25;-143.0;;;-146.1;100.0
45864;BME280;31579;52.354;16.974;2023-04-07T03:21:29;-143.5;;;-146.1;100.0
45864;BME280;31579;52.354;16.974;2023-04-07T03:21:57;-125.7;;;-146.1;100.0
45864;BME280;31579;52.354;16.974;2023-04-07T03:23:09;-152.5;;;-146.1;100.0
45864;BME280;31579;52.354;16.974;2023-04-07T03:24:13;-118.8;;;-146.1;100.0
45864;BME280;31579;52.354;16.974;2023-04-07T03:25:17;-126.7;;;-146.1;100.0
45864;BME280;31579;52.354;16.974;2023-04-07T03:26:21;-133.4;;;-146.1;100.0
45864;BME280;31579;52.354;16.974;2023-04-07T03:27:25;-137.3;;;-146.1;100.0
45864;BME280;31579;52.354;16.974;2023-04-07T03:28:29;-140.0;;;-146.1;100.0
45864;BME280;31579;52.354;16.974;2023-04-07T03:29:33;-141.5;;;-146.1;100.0
45864;BME280;31579;52.354;16.974;2023-04-07T03:30:37;-141.5;;;-146.1;100.0
45864;BME280;31579;52.354;16.974;2023-04-07T03:31:41;-141.5;;;-146.1;100.0
45864;BME280;31579;52.354;16.974;2023-04-07T03:32:45;-141.9;;;-146.1;100.0
45864;BME280;31579;52.354;16.974;2023-04-07T03:33:49;-142.6;;;-146.1;100.0
45864;BME280;31579;52.354;16.974;2023-04-07T03:34:53;-142.1;;;-146.1;100.0
45864;BME280;31579;52.354;16.974;2023-04-07T03:35:57;-141.4;;;-146.1;100.0
45864;BME280;31579;52.354;16.974;2023-04-07T03:37:01;-141.3;;;-146.1;100.0
45864;BME280;31579;52.354;16.974;2023-04-07T03:38:05;-140.6;;;-146.1;100.0
45864;BME280;31579;52.354;16.974;2023-04-07T03:39:09;-140.6;;;-146.1;100.0
45864;BME280;31579;52.354;16.974;2023-04-07T03:40:13;-140.3;;;-146.1;100.0
45864;BME280;31579;52.354;16.974;2023-04-07T03:41:17;-140.0;;;-146.1;100.0
45864;BME280;31579;52.354;16.974;2023-04-07T03:42:21;-139.3;;;-146.1;100.0
45864;BME280;31579;52.354;16.974;2023-04-07T03:43:25;-138.1;;;-146.1;100.0
45864;BME280;31579;52.354;16.974;2023-04-07T03:44:29;-137.2;;;-146.1;100.0
45864;BME280;31579;52.354;16.974;2023-04-07T03:45:33;-136.1;;;-146.1;100.0
45864;BME280;31579;52.354;16.974;2023-04-07T03:46:37;-134.3;;;-146.1;100.0
45864;BME280;31579;52.354;16.974;2023-04-07T03:47:41;-132.9;;;-146.1;100.0
45864;BME280;31579;52.354;16.974;2023-04-07T03:48:45;-131.9;;;-146.1;100.0
45864;BME280;31579;52.354;16.974;2023-04-07T03:49:49;-131.2;;;-146.1;100.0
45864;BME280;31579;52.354;16.974;2023-04-07T03:50:53;-130.3;;;-146.1;100.0
45864;BME280;31579;52.354;16.974;2023-04-07T03:51:57;-129.1;;;-146.1;100.0
45864;BME280;31579;52.354;16.974;2023-04-07T03:53:01;-128.0;;;-146.1;100.0
45864;BME280;31579;52.354;16.974;2023-04-07T03:54:03;-49.3;;;-146.1;100.0
45864;BME280;31579;52.354;16.974;2023-04-07T03:55:08;-100.1;;;-146.1;100.0
45864;BME280;31579;52.354;16.974;2023-04-07T03:56:11;-138.2;;;-146.1;100.0
45864;BME280;31579;52.354;16.974;2023-04-07T03:57:15;-131.7;;;-146.1;100.0
45864;BME280;31579;52.354;16.974;2023-04-07T03:58:19;-125.4;;;-146.1;100.0
45864;BME280;31579;52.354;16.974;2023-04-07T03:59:23;-121.1;;;-146.1;100.0
45864;BME280;31579;52.354;16.974;2023-04-07T04:00:27;-117.2;;;-146.1;100.0
45864;BME280;31579;52.354;16.974;2023-04-07T04:01:31;-114.2;;;-146.1;100.0
45864;BME280;31579;52.354;16.974;2023-04-07T04:02:35;-111.8;;;-146.1;100.0
45864;BME280;31579;52.354;16.974;2023-04-07T04:03:40;-111.0;;;-146.1;100.0
45864;BME280;31579;52.354;16.974;2023-04-07T04:04:44;-109.1;;;-146.1;100.0
45864;BME280;31579;52.354;16.974;2023-04-07T04:05:48;-106.8;;;-146.1;100.0
45864;BME280;31579;52.354;16.974;2023-04-07T04:06:52;-105.6;;;-146.1;100.0
45864;BME280;31579;52.354;16.974;2023-04-07T04:07:56;-103.7;;;-146.1;100.0
45864;BME280;31579;52.354;16.974;2023-04-07T04:09:00;-102.4;;;-146.1;100.0
45864;BME280;31579;52.354;16.974;2023-04-07T04:10:04;-7.8;;;-146.1;100.0
45864;BME280;31579;52.354;16.974;2023-04-07T04:11:05;-17.7;;;-146.1;100.0
45864;BME280;31579;52.354;16.974;2023-04-07T04:12:09;-119.8;;;-146.1;100.0
45864;BME280;31579;52.354;16.974;2023-04-07T04:13:13;-107.2;;;-146.1;100.0
45864;BME280;31579;52.354;16.974;2023-04-07T04:14:17;-98.7;;;-146.1;100.0
45864;BME280;31579;52.354;16.974;2023-04-07T04:15:21;-90.9;;;-146.1;100.0
45864;BME280;31579;52.354;16.974;2023-04-07T04:16:25;-84.9;;;-146.1;100.0
45864;BME280;31579;52.354;16.974;2023-04-07T04:17:29;-75.3;;;-146.1;100.0
45864;BME280;31579;52.354;16.974;2023-04-07T04:18:33;-71.3;;;-146.1;100.0
45864;BME280;31579;52.354;16.974;2023-04-07T04:19:37;-68.1;;;-146.1;100.0
45864;BME280;31579;52.354;16.974;2023-04-07T04:20:41;-65.6;;;-146.1;100.0
45864;BME280;31579;52.354;16.974;2023-04-07T04:21:44;-10.0;;;-146.1;100.0
45864;BME280;31579;52.354;16.974;2023-04-07T04:22:48;-70.1;;;-146.1;100.0
45864;BME280;31579;52.354;16.974;2023-04-07T04:23:52;-65.1;;;-146.1;100.0
45864;BME280;31579;52.354;16.974;2023-04-07T04:24:56;-62.0;;;-146.1;100.0
45864;BME280;31579;52.354;16.974;2023-04-07T04:26:00;-59.0;;;-146.1;100.0
45864;BME280;31579;52.354;16.974;2023-04-07T04:27:03;44.0;;;-146.1;100.0
45864;BME280;31579;52.354;16.974;2023-04-07T04:28:06;-15.8;;;-146.1;100.0
45864;BME280;31579;52.354;16.974;2023-04-07T04:29:10;-73.8;;;-146.1;100.0
45864;BME280;31579;52.354;16.974;2023-04-07T04:30:13;-9.4;;;-146.1;100.0
45864;BME280;31579;52.354;16.974;2023-04-07T04:31:17;-63.0;;;-146.1;100.0
45864;BME280;31579;52.354;16.974;2023-04-07T04:32:21;-51.8;;;-146.1;100.0
45864;BME280;31579;52.354;16.974;2023-04-07T04:33:25;-45.1;;;-146.1;100.0
45864;BME280;31579;52.354;16.974;2023-04-07T04:34:29;-38.1;;;-146.1;100.0
45864;BME280;31579;52.354;16.974;2023-04-07T04:35:47;-16.7;;;-146.1;100.0
45864;BME280;31579;52.354;16.974;2023-04-07T04:36:52;-11.2;;;-146.1;100.0
45864;BME280;31579;52.354;16.974;2023-04-07T04:37:56;-20.1;;;-146.1;100.0
45864;BME280;31579;52.354;16.974;2023-04-07T04:39:00;-25.8;;;-146.1;100.0
45864;BME280;31579;52.354;16.974;2023-04-07T04:40:06;-31.1;;;-146.1;100.0
45864;BME280;31579;52.354;16.974;2023-04-07T04:41:09;-33.5;;;-146.1;100.0
45864;BME280;31579;52.354;16.974;2023-04-07T04:42:13;-35.3;;;-146.1;100.0
45864;BME280;31579;52.354;16.974;2023-04-07T04:43:17;-35.2;;;-146.1;100.0
45864;BME280;31579;52.354;16.974;2023-04-07T04:44:21;-35.3;;;-146.1;100.0
45864;BME280;31579;52.354;16.974;2023-04-07T04:45:25;-36.0;;;-146.1;100.0
45864;BME280;31579;52.354;16.974;2023-04-07T04:46:29;-37.2;;;-146.1;100.0
45864;BME280;31579;52.354;16.974;2023-04-07T04:47:33;-37.0;;;-146.1;100.0
45864;BME280;31579;52.354;16.974;2023-04-07T04:48:37;-36.9;;;-146.1;100.0
45864;BME280;31579;52.354;16.974;2023-04-07T04:49:41;-36.8;;;-146.1;100.0
45864;BME280;31579;52.354;16.974;2023-04-07T04:50:45;-36.3;;;-146.1;100.0
45864;BME280;31579;52.354;16.974;2023-04-07T04:51:49;-35.5;;;-146.1;100.0
45864;BME280;31579;52.354;16.974;2023-04-07T04:52:53;-34.0;;;-146.1;100.0
45864;BME280;31579;52.354;16.974;2023-04-07T04:53:57;-32.8;;;-146.1;100.0
45864;BME280;31579;52.354;16.974;2023-04-07T04:55:01;-32.6;;;-146.1;100.0
45864;BME280;31579;52.354;16.974;2023-04-07T04:56:05;-32.2;;;-146.1;100.0
45864;BME280;31579;52.354;16.974;2023-04-07T04:57:09;-29.8;;;-146.1;100.0
45864;BME280;31579;52.354;16.974;2023-04-07T04:58:13;-29.4;;;-146.1;100.0
45864;BME280;31579;52.354;16.974;2023-04-07T04:59:17;-27.9;;;-146.1;100.0
45864;BME280;31579;52.354;16.974;2023-04-07T05:00:21;-28.3;;;-146.1;100.0
45864;BME280;31579;52.354;16.974;2023-04-07T05:01:25;-27.6;;;-146.1;100.0
45864;BME280;31579;52.354;16.974;2023-04-07T05:02:29;-27.6;;;-146.1;100.0
45864;BME280;31579;52.354;16.974;2023-04-07T05:03:33;-27.1;;;-146.1;100.0
45864;BME280;31579;52.354;16.974;2023-04-07T05:04:37;-25.3;;;-146.1;100.0
45864;BME280;31579;52.354;16.974;2023-04-07T05:05:41;-23.3;;;-146.1;100.0
45864;BME280;31579;52.354;16.974;2023-04-07T05:06:45;-22.3;;;-146.1;100.0
45864;BME280;31579;52.354;16.974;2023-04-07T05:07:49;-19.3;;;-146.1;100.0
45864;BME280;31579;52.354;16.974;2023-04-07T05:08:53;-18.5;;;-146.1;100.0
45864;BME280;31579;52.354;16.974;2023-04-07T05:09:57;-17.3;;;-146.1;100.0
45864;BME280;31579;52.354;16.974;2023-04-07T05:11:01;-15.8;;;-146.1;100.0
45864;BME280;31579;52.354;16.974;2023-04-07T05:12:20;26.1;;;-146.1;100.0
45864;BME280;31579;52.354;16.974;2023-04-07T05:13:24;10.3;;;-146.1;100.0
45864;BME280;31579;52.354;16.974;2023-04-07T05:14:28;-2.3;;;-146.1;100.0
45864;BME280;31579;52.354;16.974;2023-04-07T05:15:32;-7.8;;;-146.1;100.0
45864;BME280;31579;52.354;16.974;2023-04-07T05:16:48;64.4;;;-146.1;100.0
45864;BME280;31579;52.354;16.974;2023-04-07T05:17:52;-4.4;;;-146.1;100.0
45864;BME280;31579;52.354;16.974;2023-04-07T05:18:56;-39.2;;;-146.1;100.0
45864;BME280;31579;52.354;16.974;2023-04-07T05:20:00;-43.0;;;-146.1;100.0
45864;BME280;31579;52.354;16.974;2023-04-07T05:21:05;-44.3;;;-146.1;100.0
45864;BME280;31579;52.354;16.974;2023-04-07T05:22:09;-43.0;;;-146.1;100.0
45864;BME280;31579;52.354;16.974;2023-04-07T05:23:13;-42.3;;;-146.1;100.0
45864;BME280;31579;52.354;16.974;2023-04-07T05:24:17;-40.5;;;-146.1;100.0
45864;BME280;31579;52.354;16.974;2023-04-07T05:25:21;-37.7;;;-146.1;100.0
45864;BME280;31579;52.354;16.974;2023-04-07T05:26:25;-34.7;;;-146.1;100.0
45864;BME280;31579;52.354;16.974;2023-04-07T05:27:29;-33.2;;;-146.1;100.0
45864;BME280;31579;52.354;16.974;2023-04-07T05:28:33;-28.1;;;-146.1;100.0
45864;BME280;31579;52.354;16.974;2023-04-07T05:29:37;-22.6;;;-146.1;100.0
45864;BME280;31579;52.354;16.974;2023-04-07T05:30:41;-19.2;;;-146.1;100.0
45864;BME280;31579;52.354;16.974;2023-04-07T05:31:45;-17.1;;;-146.1;100.0
45864;BME280;31579;52.354;16.974;2023-04-07T05:32:49;-14.7;;;-146.1;100.0
45864;BME280;31579;52.354;16.974;2023-04-07T05:33:53;-11.2;;;-146.1;100.0
45864;BME280;31579;52.354;16.974;2023-04-07T05:34:57;-8.7;;;-146.1;100.0
45864;BME280;31579;52.354;16.974;2023-04-07T05:36:01;-3.7;;;-146.1;100.0
45864;BME280;31579;52.354;16.974;2023-04-07T05:37:05;-0.9;;;-146.1;100.0
45864;BME280;31579;52.354;16.974;2023-04-07T05:38:09;4.7;;;-146.1;100.0
45864;BME280;31579;52.354;16.974;2023-04-07T05:39:13;9.1;;;-146.1;100.0
45864;BME280;31579;52.354;16.974;2023-04-07T05:40:17;12.3;;;-146.1;100.0
45864;BME280;31579;52.354;16.974;2023-04-07T05:41:21;17.5;;;-146.1;100.0
45864;BME280;31579;52.354;16.974;2023-04-07T05:41:57;140.9;;;-146.1;100.0
45864;BME280;31579;52.354;16.974;2023-04-07T05:43:01;20.2;;;-146.1;100.0
45864;BME280;31579;52.354;16.974;2023-04-07T05:44:05;25.0;;;-146.1;100.0
45864;BME280;31579;52.354;16.974;2023-04-07T05:45:09;30.4;;;-146.1;100.0
45864;BME280;31579;52.354;16.974;2023-04-07T05:46:13;34.3;;;-146.1;100.0
45864;BME280;31579;52.354;16.974;2023-04-07T05:47:17;39.4;;;-146.1;100.0
45864;BME280;31579;52.354;16.974;2023-04-07T05:48:21;44.1;;;-146.1;100.0
45864;BME280;31579;52.354;16.974;2023-04-07T05:49:25;47.4;;;-146.1;100.0
45864;BME280;31579;52.354;16.974;2023-04-07T05:50:29;51.0;;;-146.1;100.0
45864;BME280;31579;52.354;16.974;2023-04-07T05:51:33;55.1;;;-146.1;100.0
45864;BME280;31579;52.354;16.974;2023-04-07T05:52:37;57.8;;;-146.1;100.0
45864;BME280;31579;52.354;16.974;2023-04-07T05:53:41;60.0;;;-146.1;100.0
45864;BME280;31579;52.354;16.974;2023-04-07T05:54:45;62.3;;;-146.1;100.0
45864;BME280;31579;52.354;16.974;2023-04-07T05:55:49;64.3;;;-146.1;100.0
45864;BME280;31579;52.354;16.974;2023-04-07T05:56:54;61.8;;;-146.1;100.0
45864;BME280;31579;52.354;16.974;2023-04-07T05:57:58;68.8;;;-146.1;100.0